Time;durP1;ratioP1;P1;durP2;ratioP2;P2;SDS_P1;SDS_P2;PMS_P1;PMS_P2;Temp;Humidity;BMP_temperature;BMP_pressure;BME280_temperature;BME280_humidity;BME280_pressure;Samples;Min_cycle;Max_cycle;Signal;HPM_P1;HPM_P2
2024/01/15 00:00:17;;;;;;;39.27;21.23;;;;;;;-2.69;100.00;100143.38;5070414;28;20024;-85
2024/01/15 00:02:42;;;;;;;38.87;20.53;;;;;;;-2.54;100.00;100169.94;5068853;28;20054;-86
2024/01/15 00:05:08;;;;;;;39.13;20.70;;;;;;;-2.43;100.00;100175.88;5070051;28;20411;-83
2024/01/15 00:07:33;;;;;;;36.50;19.80;;;;;;;-2.64;100.00;100150.59;5070224;28;20127;-82
2024/01/15 00:09:59;;;;;;;38.90;19.50;;;;;;;-2.33;100.00;100196.13;5069128;28;20430;-81
2024/01/15 00:12:24;;;;;;;40.10;20.33;;;;;;;-2.30;100.00;100190.44;5069879;28;20459;-82
2024/01/15 00:14:50;;;;;;;37.43;20.27;;;;;;;-2.35;100.00;100181.59;5069585;28;20035;-83
2024/01/15 00:17:15;;;;;;;39.07;20.73;;;;;;;-2.46;100.00;100161.34;5069959;28;20547;-82
2024/01/15 00:19:41;;;;;;;40.17;19.47;;;;;;;-2.61;100.00;100157.53;5063871;28;20032;-82
2024/01/15 00:22:06;;;;;;;40.33;20.10;;;;;;;-3.18;100.00;100094.63;5070160;28;20029;-81
2024/01/15 00:24:32;;;;;;;39.57;19.83;;;;;;;-2.68;100.00;100175.47;5070042;28;20075;-82
2024/01/15 00:26:57;;;;;;;39.87;20.73;;;;;;;-3.01;100.00;100142.41;5069999;28;20074;-81
2024/01/15 00:29:23;;;;;;;40.67;21.37;;;;;;;-3.34;100.00;100153.94;5070225;28;20077;-81
2024/01/15 00:31:48;;;;;;;48.57;24.47;;;;;;;-3.50;100.00;100154.22;5069104;28;20021;-84
2024/01/15 00:34:14;;;;;;;48.53;23.10;;;;;;;-4.00;100.00;100102.72;5070137;28;20465;-88
2024/01/15 00:36:39;;;;;;;51.37;23.77;;;;;;;-3.60;100.00;100165.13;5070174;28;20040;-82
2024/01/15 00:39:05;;;;;;;48.30;22.93;;;;;;;-3.56;100.00;100168.81;5068460;28;20197;-83
2024/01/15 00:41:31;;;;;;;48.00;23.33;;;;;;;-4.05;100.00;100102.28;5070031;28;20509;-81
2024/01/15 00:43:56;;;;;;;52.17;24.77;;;;;;;-3.70;100.00;100164.19;5069844;28;20036;-81
2024/01/15 00:46:22;;;;;;;45.60;23.10;;;;;;;-4.22;100.00;100108.38;5068557;28;20123;-86
2024/01/15 00:48:47;;;;;;;50.87;25.57;;;;;;;-4.02;100.00;100142.06;5069766;28;20471;-83
2024/01/15 00:51:13;;;;;;;54.87;24.73;;;;;;;-4.36;100.00;100111.28;5056590;28;20028;-85
2024/01/15 00:53:38;;;;;;;49.53;23.20;;;;;;;-4.15;100.00;100176.25;5069772;28;20040;-88
2024/01/15 00:56:04;;;;;;;45.20;23.03;;;;;;;-4.26;100.00;100182.81;5067969;28;20020;-83
2024/01/15 00:58:30;;;;;;;47.17;23.13;;;;;;;-4.94;100.00;100100.19;5069841;28;20025;-82
2024/01/15 01:00:55;;;;;;;50.53;23.53;;;;;;;-4.71;100.00;100166.16;5068370;28;20013;-80
2024/01/15 01:03:21;;;;;;;51.77;24.83;;;;;;;-4.79;100.00;100151.97;5069537;28;20032;-85
2024/01/15 01:05:49;;;;;;;59.70;25.67;;;;;;;-5.06;100.00;100100.84;5084940;28;20036;-80
2024/01/15 01:08:15;;;;;;;50.05;24.58;;;;;;;-4.69;100.00;100172.97;5085406;28;20406;-83
2024/01/15 01:10:42;;;;;;;52.53;25.30;;;;;;;-4.70;100.00;100156.97;5069884;28;20028;-80
2024/01/15 01:13:08;;;;;;;55.77;26.83;;;;;;;-4.99;100.00;100093.84;5068085;28;20024;-88
2024/01/15 01:15:34;;;;;;;51.90;24.37;;;;;;;-5.01;100.00;100083.63;5069867;28;20056;-88
2024/01/15 01:17:59;;;;;;;54.37;23.00;;;;;;;-4.65;100.00;100144.78;5068056;28;20137;-81
2024/01/15 01:20:25;;;;;;;49.40;22.97;;;;;;;-4.50;100.00;100153.75;5069691;28;20090;-83
2024/01/15 01:22:50;;;;;;;50.37;23.27;;;;;;;-4.22;100.00;100166.34;5068179;28;20068;-84
2024/01/15 01:25:16;;;;;;;51.20;25.80;;;;;;;-4.30;100.00;100139.56;5085512;28;20048;-80
2024/01/15 01:27:41;;;;;;;49.47;24.53;;;;;;;-4.25;100.00;100163.53;5071678;28;20070;-81
2024/01/15 01:30:07;;;;;;;48.60;24.73;;;;;;;-4.71;100.00;100088.09;5090501;28;20054;-84
2024/01/15 01:32:32;;;;;;;54.50;25.73;;;;;;;-4.72;100.00;100086.31;5090721;28;20067;-82
2024/01/15 01:34:58;;;;;;;47.03;22.43;;;;;;;-4.34;100.00;100176.19;5090190;28;20042;-80
2024/01/15 01:37:24;;;;;;;49.73;25.27;;;;;;;-4.66;100.00;100121.25;5090699;28;20078;-81
2024/01/15 01:39:49;;;;;;;49.93;23.73;;;;;;;-4.56;100.00;100120.44;5073182;28;20063;-82
2024/01/15 01:42:15;;;;;;;44.57;23.53;;;;;;;-4.55;100.00;100117.16;5090544;28;20467;-82
2024/01/15 01:44:40;;;;;;;45.93;23.33;;;;;;;-4.48;100.00;100104.38;5090045;28;20032;-82
2024/01/15 01:47:06;;;;;;;54.03;24.30;;;;;;;-4.27;100.00;100142.38;5090128;28;20042;-83
2024/01/15 01:49:32;;;;;;;46.30;24.60;;;;;;;-4.36;100.00;100123.88;5089452;28;20094;-81
2024/01/15 01:52:01;;;;;;;49.57;23.00;;;;;;;-4.40;100.00;100115.16;5089920;28;20177;-80
2024/01/15 01:54:31;;;;;;;40.78;18.58;;;;;;;-4.25;100.00;100146.78;5090141;28;20036;-81
2024/01/15 01:56:57;;;;;;;47.97;24.23;;;;;;;-4.48;100.00;100136.28;5090125;28;20058;-81
2024/01/15 01:59:25;;;;;;;50.43;22.40;;;;;;;-4.36;100.00;100154.13;5089813;28;20063;-81
2024/01/15 02:01:52;;;;;;;48.47;24.33;;;;;;;-4.33;100.00;100157.81;5070523;28;20063;-81
2024/01/15 02:04:17;;;;;;;44.43;22.50;;;;;;;-4.44;100.00;100138.31;5059301;28;20038;-79
2024/01/15 02:06:43;;;;;;;45.17;23.70;;;;;;;-4.26;100.00;100154.19;5070884;28;20032;-81
2024/01/15 02:09:09;;;;;;;46.23;22.83;;;;;;;-4.45;100.00;100137.44;5071017;28;20029;-81
2024/01/15 02:11:36;;;;;;;45.73;23.27;;;;;;;-4.48;100.00;100149.75;5072139;28;20025;-79
2024/01/15 02:14:02;;;;;;;45.53;23.97;;;;;;;-4.45;100.00;100137.44;5059269;28;20024;-81
2024/01/15 02:16:27;;;;;;;44.30;22.47;;;;;;;-4.59;100.00;100147.88;5071926;28;20030;-82
2024/01/15 02:18:53;;;;;;;44.27;23.77;;;;;;;-4.90;100.00;100087.13;5072248;28;20429;-81
2024/01/15 02:21:18;;;;;;;44.20;22.30;;;;;;;-4.80;100.00;100129.16;5071978;28;20028;-79
2024/01/15 02:23:44;;;;;;;39.27;20.27;;;;;;;-4.69;100.00;100152.81;5070672;28;20031;-85
2024/01/15 02:26:10;;;;;;;47.43;23.33;;;;;;;-4.85;100.00;100126.22;5071738;28;20037;-79
2024/01/15 02:28:36;;;;;;;42.47;21.67;;;;;;;-4.73;100.00;100141.56;5072067;28;20033;-80
2024/01/15 02:31:01;;;;;;;52.47;24.87;;;;;;;-4.64;100.00;100144.94;5071211;28;20034;-80
2024/01/15 02:33:27;;;;;;;51.57;26.20;;;;;;;-4.74;100.00;100099.50;5070415;28;20035;-83
2024/01/15 02:35:52;;;;;;;56.40;26.40;;;;;;;-4.80;100.00;100088.88;5070351;28;20467;-79
2024/01/15 02:38:18;;;;;;;62.40;28.17;;;;;;;-4.49;100.00;100131.97;5070576;28;20028;-80
2024/01/15 02:40:45;;;;;;;54.83;26.87;;;;;;;-4.44;100.00;100125.72;5070052;28;20487;-80
2024/01/15 02:43:11;;;;;;;57.33;28.03;;;;;;;-4.49;100.00;100117.72;5071351;28;20115;-80
2024/01/15 02:45:36;;;;;;;63.37;30.70;;;;;;;-4.60;100.00;100085.63;5071424;28;20112;-80
2024/01/15 02:48:02;;;;;;;63.60;30.97;;;;;;;-4.50;100.00;100102.47;5069955;28;20043;-80
2024/01/15 02:50:27;;;;;;;63.83;30.50;;;;;;;-4.42;100.00;100102.44;5071610;28;20020;-81
2024/01/15 02:52:53;;;;;;;63.73;30.43;;;;;;;-4.38;100.00;100106.09;5070890;28;20470;-80
2024/01/15 02:55:19;;;;;;;61.67;28.57;;;;;;;-4.80;100.00;100043.53;5071435;28;20107;-79
2024/01/15 02:57:44;;;;;;;46.17;23.80;;;;;;;-4.40;100.00;100100.94;5071231;28;20153;-80
2024/01/15 03:00:11;;;;;;;54.03;27.20;;;;;;;-4.43;100.00;100087.16;5071472;28;20039;-81
2024/01/15 03:02:39;;;;;;;57.67;26.60;;;;;;;-4.79;100.00;100020.13;5070839;28;20055;-81
2024/01/15 03:05:06;;;;;;;52.83;23.43;;;;;;;-4.13;100.00;100126.81;5069801;28;20025;-84
2024/01/15 03:07:32;;;;;;;43.50;22.50;;;;;;;-4.41;100.00;100058.84;5058071;28;20032;-81
2024/01/15 03:09:57;;;;;;;42.87;21.57;;;;;;;-4.52;100.00;100051.06;5069646;28;20029;-81
2024/01/15 03:12:23;;;;;;;41.70;20.87;;;;;;;-4.26;100.00;100098.75;5069666;28;20024;-81
2024/01/15 03:14:48;;;;;;;44.27;20.80;;;;;;;-4.55;100.00;100054.19;5069393;28;20477;-80
2024/01/15 03:17:14;;;;;;;39.63;19.63;;;;;;;-4.40;100.00;100087.44;5070870;28;20025;-80
2024/01/15 03:19:39;;;;;;;45.93;21.27;;;;;;;-4.37;100.00;100097.81;5069518;28;20528;-81
2024/01/15 03:22:07;;;;;;;42.37;22.13;;;;;;;-4.24;100.00;100119.94;5070519;28;20020;-80
2024/01/15 03:24:33;;;;;;;41.10;20.07;;;;;;;-4.44;100.00;100087.91;5108417;28;20051;-82
2024/01/15 03:26:58;;;;;;;43.97;21.43;;;;;;;-4.46;100.00;100087.78;5108510;28;20039;-80
2024/01/15 03:29:25;;;;;;;42.63;21.73;;;;;;;-4.23;100.00;100126.75;5108437;28;20078;-81
2024/01/15 03:31:51;;;;;;;42.00;20.63;;;;;;;-4.56;100.00;100080.13;5091451;28;20028;-79
2024/01/15 03:34:16;;;;;;;47.60;23.23;;;;;;;-4.59;100.00;100094.97;5108391;28;20520;-80
2024/01/15 03:36:42;;;;;;;46.63;21.33;;;;;;;-4.52;100.00;100091.38;5091511;28;20035;-85
2024/01/15 03:39:07;;;;;;;42.40;20.77;;;;;;;-4.64;100.00;100069.38;5108275;28;20585;-81
2024/01/15 03:41:33;;;;;;;41.40;20.73;;;;;;;-4.36;100.00;100102.09;5108356;28;20062;-80
2024/01/15 03:43:59;;;;;;;45.00;22.57;;;;;;;-4.49;100.00;100106.78;5107649;28;20521;-80
2024/01/15 03:46:24;;;;;;;50.57;23.90;;;;;;;-4.48;100.00;100108.56;5091084;28;20028;-80
2024/01/15 03:48:50;;;;;;;45.30;22.87;;;;;;;-4.49;100.00;100104.25;5090788;28;20061;-79
2024/01/15 03:51:17;;;;;;;44.03;22.97;;;;;;;-4.54;100.00;100121.47;5094677;28;20489;-80
2024/01/15 03:53:43;;;;;;;47.10;23.97;;;;;;;-4.96;100.00;100102.59;5090931;28;20034;-82
2024/01/15 03:56:08;;;;;;;46.60;23.33;;;;;;;-5.43;100.00;100026.97;5079454;28;20059;-80
2024/01/15 03:58:34;;;;;;;48.83;23.23;;;;;;;-5.00;100.00;100076.97;5068646;28;20513;-80
2024/01/15 04:00:59;;;;;;;43.73;21.77;;;;;;;-4.95;100.00;100075.75;5068752;28;20070;-80
2024/01/15 04:03:25;;;;;;;42.43;22.27;;;;;;;-5.24;100.00;100019.47;5070187;28;20115;-82
2024/01/15 04:05:50;;;;;;;40.40;21.57;;;;;;;-4.88;100.00;100095.72;5068793;28;20031;-80
2024/01/15 04:08:16;;;;;;;42.57;21.87;;;;;;;-5.05;100.00;100100.09;5068765;28;20032;-78
2024/01/15 04:10:41;;;;;;;42.57;21.70;;;;;;;-5.84;100.00;99988.78;5070234;28;20055;-80
2024/01/15 04:13:07;;;;;;;45.80;23.33;;;;;;;-5.19;100.00;100102.97;5070108;28;20028;-82
2024/01/15 04:15:32;;;;;;;46.50;22.97;;;;;;;-5.49;100.00;100046.53;5068606;28;20407;-79
2024/01/15 04:17:58;;;;;;;48.73;24.20;;;;;;;-5.43;100.00;100063.78;5070213;28;20032;-79
2024/01/15 04:20:23;;;;;;;45.03;23.23;;;;;;;-5.09;100.00;100107.22;5053920;28;20536;-81
2024/01/15 04:22:49;;;;;;;46.70;24.03;;;;;;;-5.06;100.00;100103.34;5052055;28;20555;-79
2024/01/15 04:25:14;;;;;;;38.93;19.60;;;;;;;-5.36;100.00;100067.06;5064848;28;20029;-81
2024/01/15 04:27:40;;;;;;;42.43;20.97;;;;;;;-5.01;100.00;100123.03;5068444;28;20032;-80
2024/01/15 04:30:06;;;;;;;45.37;22.07;;;;;;;-4.94;100.00;100131.28;5068312;28;20028;-80
2024/01/15 04:32:31;;;;;;;42.67;21.67;;;;;;;-5.39;100.00;100064.22;5069987;28;20479;-80
2024/01/15 04:34:57;;;;;;;48.87;23.57;;;;;;;-4.94;100.00;100120.34;5068589;28;20078;-80
2024/01/15 04:37:23;;;;;;;38.90;20.77;;;;;;;-4.86;100.00;100116.88;5070032;28;20505;-80
2024/01/15 04:39:52;;;;;;;44.93;20.33;;;;;;;-4.77;100.00;100137.88;5070690;28;20110;-80
2024/01/15 04:42:18;;;;;;;41.10;20.98;;;;;;;-5.06;100.00;100093.28;5069326;28;20479;-78
2024/01/15 04:44:44;;;;;;;41.37;20.30;;;;;;;-5.13;100.00;100090.94;5069770;28;20032;-79
2024/01/15 04:47:09;;;;;;;38.60;20.13;;;;;;;-5.15;100.00;100102.50;5069726;28;20017;-79
2024/01/15 04:49:35;;;;;;;44.77;21.57;;;;;;;-5.08;100.00;100088.88;5070033;28;20459;-79
2024/01/15 04:52:00;;;;;;;43.80;20.33;;;;;;;-5.24;100.00;100051.31;5069766;28;20029;-79
2024/01/15 04:54:26;;;;;;;42.27;20.73;;;;;;;-4.97;100.00;100095.78;5069789;28;20055;-80
2024/01/15 04:56:51;;;;;;;45.13;21.10;;;;;;;-5.20;100.00;100068.47;5069277;28;20100;-80
2024/01/15 04:59:18;;;;;;;41.93;20.80;;;;;;;-4.86;100.00;100109.31;5065075;28;20422;-79
2024/01/15 05:01:44;;;;;;;43.47;22.97;;;;;;;-4.75;100.00;100103.66;5070133;28;20032;-79
2024/01/15 05:04:09;;;;;;;47.77;23.57;;;;;;;-4.77;100.00;100094.16;5063957;28;20032;-79
2024/01/15 05:06:35;;;;;;;43.40;21.90;;;;;;;-4.71;100.00;100097.25;5072801;28;20036;-79
2024/01/15 05:09:00;;;;;;;45.43;21.87;;;;;;;-5.25;100.00;100032.81;5072276;28;20486;-85
2024/01/15 05:11:26;;;;;;;46.03;22.27;;;;;;;-5.06;100.00;100060.56;5072809;28;20028;-80
2024/01/15 05:13:51;;;;;;;48.57;22.97;;;;;;;-4.78;100.00;100095.81;5071759;28;20029;-76
2024/01/15 05:16:17;;;;;;;43.00;23.13;;;;;;;-5.71;100.00;99945.56;5068203;28;20052;-79
2024/01/15 05:18:43;;;;;;;46.10;22.37;;;;;;;-5.22;100.00;100032.19;5072896;28;20066;-77
2024/01/15 05:21:09;;;;;;;44.63;22.67;;;;;;;-4.73;100.00;100097.13;5072833;28;20494;-84
2024/01/15 05:23:34;;;;;;;46.23;22.77;;;;;;;-4.92;100.00;100094.56;5072763;28;20130;-79
2024/01/15 05:26:00;;;;;;;51.13;23.40;;;;;;;-5.12;100.00;100067.56;5072887;28;20394;-79
2024/01/15 05:28:25;;;;;;;44.50;22.30;;;;;;;-4.96;100.00;100086.56;5073017;28;20036;-83
2024/01/15 05:30:52;;;;;;;45.00;21.50;;;;;;;-5.36;100.00;100004.16;5073006;28;20036;-79
2024/01/15 05:33:17;;;;;;;46.73;21.40;;;;;;;-5.48;100.00;99992.97;5073416;28;20037;-79
2024/01/15 05:35:43;;;;;;;63.63;34.57;;;;;;;-4.84;100.00;100090.22;5073349;28;20040;-78
2024/01/15 05:38:08;;;;;;;50.83;25.47;;;;;;;-4.77;100.00;100095.06;5072071;28;20072;-79
2024/01/15 05:40:34;;;;;;;47.13;23.40;;;;;;;-4.88;100.00;100085.66;5073232;28;20114;-78
2024/01/15 05:42:59;;;;;;;43.37;21.97;;;;;;;-5.06;100.00;100050.50;5073282;28;20379;-79
2024/01/15 05:45:30;;;;;;;38.57;20.70;;;;;;;-4.95;100.00;100078.28;5073223;28;20703;-79
2024/01/15 05:47:55;;;;;;;46.33;23.73;;;;;;;-4.91;100.00;100106.41;5072965;28;20184;-79
2024/01/15 05:50:22;;;;;;;44.87;22.17;;;;;;;-5.03;100.00;100085.13;5073002;28;20493;-79
2024/01/15 05:52:47;;;;;;;49.47;22.27;;;;;;;-5.07;100.00;100078.94;5073215;28;20111;-79
2024/01/15 05:55:13;;;;;;;48.40;23.43;;;;;;;-4.99;100.00;100092.22;5072463;28;20085;-79
2024/01/15 05:57:38;;;;;;;54.87;27.43;;;;;;;-4.81;100.00;100104.72;5070472;28;20086;-83
2024/01/15 06:00:05;;;;;;;50.43;25.10;;;;;;;-4.78;100.00;100100.84;5073364;28;20390;-81
2024/01/15 06:02:30;;;;;;;49.17;22.93;;;;;;;-4.74;100.00;100095.34;5072725;28;20032;-79
2024/01/15 06:04:56;;;;;;;47.13;25.43;;;;;;;-4.67;100.00;100105.97;5072604;28;20028;-79
2024/01/15 06:07:22;;;;;;;60.80;28.97;;;;;;;-5.11;100.00;100026.53;5073252;28;20505;-79
2024/01/15 06:09:49;;;;;;;51.47;25.67;;;;;;;-4.95;100.00;100048.06;5072817;28;20050;-78
2024/01/15 06:12:15;;;;;;;57.80;30.40;;;;;;;-4.78;100.00;100077.31;5072652;28;20539;-78
2024/01/15 06:14:41;;;;;;;65.40;32.10;;;;;;;-4.78;100.00;100075.66;5072701;28;20107;-79
2024/01/15 06:17:07;;;;;;;42.23;22.33;;;;;;;-4.95;100.00;100061.53;5072783;28;20081;-78
2024/01/15 06:19:32;;;;;;;48.77;22.30;;;;;;;-5.09;100.00;100055.22;5072952;28;20033;-82
2024/01/15 06:21:58;;;;;;;47.67;21.73;;;;;;;-5.28;100.00;100061.84;5072625;28;20398;-79
2024/01/15 06:24:23;;;;;;;47.80;23.30;;;;;;;-5.37;100.00;100050.19;5071063;28;20024;-79
2024/01/15 06:26:49;;;;;;;54.70;23.03;;;;;;;-5.38;100.00;100037.47;5072411;28;20020;-79
2024/01/15 06:29:14;;;;;;;43.63;22.57;;;;;;;-5.63;100.00;99981.47;5072413;28;20609;-80
2024/01/15 06:31:40;;;;;;;42.50;21.77;;;;;;;-5.07;100.00;100043.69;5072429;28;20032;-79
2024/01/15 06:34:06;;;;;;;55.53;26.73;;;;;;;-5.19;100.00;100002.28;5072490;28;20398;-83
2024/01/15 06:36:31;;;;;;;98.13;44.33;;;;;;;-5.33;100.00;99958.25;5072711;28;20028;-79
2024/01/15 06:38:57;;;;;;;61.33;32.43;;;;;;;-5.30;100.00;99971.09;5072380;28;20478;-79
2024/01/15 06:41:22;;;;;;;57.30;26.70;;;;;;;-5.53;100.00;99967.38;5072609;28;20045;-78
2024/01/15 06:43:48;;;;;;;53.03;26.43;;;;;;;-5.26;100.00;100040.22;5072224;28;20033;-79
2024/01/15 06:46:23;;;;;;;51.07;25.30;;;;;;;-5.41;100.00;100045.63;5072557;28;20020;-79
2024/01/15 06:48:49;;;;;;;54.13;24.40;;;;;;;-5.61;100.00;100086.47;5071087;28;20064;-78
2024/01/15 06:51:15;;;;;;;51.87;24.60;;;;;;;-5.92;100.00;100093.66;5077369;28;20047;-79
2024/01/15 06:53:41;;;;;;;56.60;27.13;;;;;;;-6.17;100.00;100035.13;5086819;28;20104;-79
2024/01/15 06:56:06;;;;;;;56.60;28.50;;;;;;;-5.74;100.00;100074.38;5083720;28;20017;-83
2024/01/15 06:58:32;;;;;;;55.07;28.47;;;;;;;-6.18;100.00;99983.09;5072892;28;20479;-79
2024/01/15 07:00:57;;;;;;;61.80;29.47;;;;;;;-5.61;100.00;100056.31;5072508;28;20024;-79
2024/01/15 07:03:23;;;;;;;61.07;30.17;;;;;;;-5.35;100.00;100080.50;5071668;28;20027;-80
2024/01/15 07:05:49;;;;;;;58.10;27.90;;;;;;;-5.41;100.00;100057.28;5071878;28;20032;-79
2024/01/15 07:08:14;;;;;;;59.37;28.77;;;;;;;-5.28;100.00;100077.81;5072023;28;20028;-80
2024/01/15 07:10:40;;;;;;;53.07;27.43;;;;;;;-5.43;100.00;100036.13;5071885;28;20036;-80
2024/01/15 07:13:05;;;;;;;63.50;30.13;;;;;;;-5.63;100.00;99986.50;5071641;28;20028;-83
2024/01/15 07:15:31;;;;;;;59.50;29.03;;;;;;;-4.97;100.00;100067.16;5071430;28;20036;-79
2024/01/15 07:17:57;;;;;;;65.97;32.47;;;;;;;-5.31;100.00;99976.00;5071089;28;20106;-79
2024/01/15 07:20:23;;;;;;;58.97;29.90;;;;;;;-4.67;100.00;100065.69;5071866;28;20028;-80
2024/01/15 07:22:48;;;;;;;60.03;31.13;;;;;;;-4.42;100.00;100064.63;5071168;28;20025;-81
2024/01/15 07:25:15;;;;;;;67.87;31.53;;;;;;;-4.35;100.00;100050.94;5071436;28;20098;-81
2024/01/15 07:27:44;;;;;;;68.57;33.00;;;;;;;-4.25;100.00;100070.28;5070117;28;20483;-87
2024/01/15 07:30:10;;;;;;;71.72;32.03;;;;;;;-4.57;100.00;100048.16;5071598;28;20031;-83
2024/01/15 07:32:36;;;;;;;49.73;26.03;;;;;;;-4.63;100.00;100061.06;5048568;28;20033;-80
2024/01/15 07:35:01;;;;;;;51.87;26.23;;;;;;;-4.94;100.00;100009.56;5048812;28;20130;-81
2024/01/15 07:37:27;;;;;;;57.03;27.40;;;;;;;-4.49;100.00;100079.06;5048554;28;20124;-80
2024/01/15 07:39:52;;;;;;;58.20;26.43;;;;;;;-4.36;100.00;100070.97;5048504;28;20134;-79
2024/01/15 07:42:18;;;;;;;56.27;28.97;;;;;;;-4.25;100.00;100068.66;5028992;28;20501;-81
2024/01/15 07:44:43;;;;;;;57.83;26.27;;;;;;;-4.17;100.00;100064.28;5048577;28;20064;-80
2024/01/15 07:47:09;;;;;;;63.83;27.13;;;;;;;-4.04;100.00;100050.25;5048630;28;20511;-79
2024/01/15 07:49:34;;;;;;;57.57;27.17;;;;;;;-3.96;100.00;100031.66;5048502;28;20029;-80
2024/01/15 07:52:00;;;;;;;53.50;26.07;;;;;;;-3.76;100.00;100051.03;5048245;28;20045;-79
2024/01/15 07:54:26;;;;;;;53.50;28.10;;;;;;;-3.78;100.00;100038.25;5048549;28;20033;-82
2024/01/15 07:56:59;;;;;;;54.10;25.43;;;;;;;-3.55;100.00;100048.56;5048324;28;20040;-81
2024/01/15 07:59:24;;;;;;;58.63;28.90;;;;;;;-3.60;100.00;100044.03;5048297;28;20535;-81
2024/01/15 08:01:51;;;;;;;55.37;26.73;;;;;;;-3.37;100.00;100069.47;5031429;28;20037;-81
2024/01/15 08:04:16;;;;;;;59.33;29.20;;;;;;;-3.31;100.00;100083.50;5065523;28;20506;-86
2024/01/15 08:06:42;;;;;;;60.03;30.07;;;;;;;-3.47;100.00;100035.00;5070782;28;20074;-81
2024/01/15 08:09:08;;;;;;;56.37;27.90;;;;;;;-3.59;100.00;100009.56;5070792;28;20505;-81
2024/01/15 08:11:34;;;;;;;62.77;28.17;;;;;;;-3.12;100.00;100070.78;5070930;28;20121;-81
2024/01/15 08:14:00;;;;;;;66.13;30.47;;;;;;;-3.06;100.00;100074.63;5070877;28;20028;-81
2024/01/15 08:16:27;;;;;;;54.60;28.57;;;;;;;-3.26;100.00;100008.16;5069482;28;20036;-81
2024/01/15 08:18:53;;;;;;;54.17;27.10;;;;;;;-3.08;100.00;100016.38;5070541;28;20024;-80
2024/01/15 08:21:19;;;;;;;55.43;29.67;;;;;;;-2.77;100.00;100050.16;5070707;28;20024;-80
2024/01/15 08:23:44;;;;;;;62.20;28.97;;;;;;;-2.78;100.00;100038.25;5051137;28;20037;-81
2024/01/15 08:26:10;;;;;;;62.33;32.40;;;;;;;-3.07;100.00;99976.88;5070754;28;20039;-80
2024/01/15 08:28:36;;;;;;;54.77;29.77;;;;;;;-2.93;100.00;99994.03;5070708;28;20078;-80
2024/01/15 08:31:02;;;;;;;64.17;30.13;;;;;;;-2.56;100.00;100047.59;5070808;28;20033;-80
2024/01/15 08:33:28;;;;;;;61.10;28.90;;;;;;;-2.49;100.00;100052.41;5070421;28;20107;-82
2024/01/15 08:35:54;;;;;;;67.37;32.53;;;;;;;-2.37;100.00;100046.59;5072359;28;20103;-80
2024/01/15 08:38:20;;;;;;;59.63;30.00;;;;;;;-2.74;100.00;99975.34;5073075;28;20031;-81
2024/01/15 08:40:45;;;;;;;58.67;29.03;;;;;;;-2.43;100.00;100003.97;5074623;28;20055;-82
2024/01/15 08:43:11;;;;;;;58.70;28.67;;;;;;;-2.54;100.00;99956.75;5073381;28;20036;-80
2024/01/15 08:45:36;;;;;;;59.73;29.93;;;;;;;-2.11;100.00;100013.28;5074597;28;20033;-82
2024/01/15 08:48:03;;;;;;;55.30;25.87;;;;;;;-2.25;100.00;99988.56;5074926;28;20035;-85
2024/01/15 08:50:29;;;;;;;67.00;29.93;;;;;;;-2.39;100.00;99957.09;5055687;28;20033;-82
2024/01/15 08:52:55;;;;;;;58.77;26.17;;;;;;;-1.96;100.00;100022.09;5070232;28;20115;-84
2024/01/15 08:55:22;;;;;;;58.37;27.57;;;;;;;-2.13;100.00;99979.38;5074712;28;20170;-83
2024/01/15 08:57:48;;;;;;;61.43;29.37;;;;;;;-2.02;100.00;99985.31;5074570;28;20056;-83
2024/01/15 09:00:15;;;;;;;64.50;30.43;;;;;;;-2.47;100.00;99900.88;5074159;28;20024;-83
2024/01/15 09:02:42;;;;;;;58.47;28.17;;;;;;;-1.71;100.00;100036.66;5038389;28;20040;-82
2024/01/15 09:05:07;;;;;;;62.97;29.33;;;;;;;-1.79;100.00;100018.34;5074270;28;20070;-82
2024/01/15 09:07:33;;;;;;;59.60;29.37;;;;;;;-2.36;100.00;99927.00;5074216;28;20514;-80
2024/01/15 09:09:59;;;;;;;60.57;28.43;;;;;;;-1.73;100.00;100023.03;5074207;28;20111;-80
2024/01/15 09:12:25;;;;;;;55.60;28.73;;;;;;;-1.64;100.00;100006.00;5071074;28;20411;-80
2024/01/15 09:14:53;;;;;;;61.30;28.77;;;;;;;-1.98;100.00;99921.56;5071329;28;20111;-79
2024/01/15 09:17:23;;;;;;;62.33;30.00;;;;;;;-1.86;100.00;99904.78;5071192;28;20028;-80
2024/01/15 09:19:49;;;;;;;57.00;27.93;;;;;;;-1.74;100.00;99917.50;5054691;28;20033;-80
2024/01/15 09:22:18;;;;;;;56.07;26.47;;;;;;;-1.23;100.00;99979.59;5071049;28;20051;-80
2024/01/15 09:24:44;;;;;;;56.53;29.48;;;;;;;-1.20;100.00;99963.72;5038153;28;20078;-80
2024/01/15 09:27:11;;;;;;;58.57;29.40;;;;;;;-1.00;100.00;99977.91;5071184;28;20063;-78
2024/01/15 09:29:41;;;;;;;62.47;33.93;;;;;;;-1.21;100.00;99901.19;5067279;28;20093;-79
2024/01/15 09:32:07;;;;;;;64.00;33.77;;;;;;;-0.78;100.00;99934.75;5071215;28;20396;-78
2024/01/15 09:34:35;;;;;;;56.90;30.60;;;;;;;-0.64;100.00;99929.81;5071495;28;20059;-85
2024/01/15 09:37:00;;;;;;;52.07;29.27;;;;;;;-0.48;100.00;99947.03;4991459;28;20046;-80
2024/01/15 09:39:27;;;;;;;55.73;29.57;;;;;;;-0.25;100.00;99959.72;4989380;28;20042;-80
2024/01/15 09:41:56;;;;;;;55.83;27.13;;;;;;;-0.20;100.00;99955.84;4971954;28;20098;-85
2024/01/15 09:44:21;;;;;;;52.67;27.25;;;;;;;-0.53;100.00;99907.00;4971958;28;20050;-79
2024/01/15 09:46:50;;;;;;;55.87;28.80;;;;;;;-0.22;100.00;99944.69;4971579;28;20035;-80
2024/01/15 09:49:16;;;;;;;51.80;28.23;;;;;;;-0.91;100.00;99826.56;4972128;28;20090;-79
2024/01/15 09:51:44;;;;;;;49.80;29.07;;;;;;;-0.20;100.00;99935.56;4972037;28;20027;-81
2024/01/15 09:54:13;;;;;;;51.83;26.90;;;;;;;-0.26;100.00;99924.97;4972021;28;20046;-79
2024/01/15 09:56:39;;;;;;;49.80;27.08;;;;;;;-0.85;100.00;99849.81;4972117;28;20038;-79
2024/01/15 09:59:05;;;;;;;48.50;28.57;;;;;;;-0.42;100.00;99928.06;4955612;28;20072;-80
2024/01/15 10:01:38;;;;;;;52.50;28.27;;;;;;;-0.54;100.00;99876.47;4971848;28;20129;-80
2024/01/15 10:04:03;;;;;;;53.93;28.47;;;;;;;-0.42;100.00;99868.88;4955462;28;20034;-79
2024/01/15 10:06:30;;;;;;;53.53;29.97;;;;;;;-0.18;100.00;99883.25;4969037;28;20069;-79
2024/01/15 10:09:00;;;;;;;55.03;30.23;;;;;;;0.00;100.00;99895.50;4971649;28;20100;-80
2024/01/15 10:11:26;;;;;;;56.03;30.27;;;;;;;-0.39;100.00;99831.03;4971614;28;20031;-82
2024/01/15 10:13:53;;;;;;;58.33;28.63;;;;;;;-0.03;100.00;99872.41;4986880;28;20565;-80
2024/01/15 10:16:21;;;;;;;53.88;28.63;;;;;;;0.21;100.00;99874.88;5013816;28;20476;-79
2024/01/15 10:18:48;;;;;;;56.47;29.30;;;;;;;0.39;100.00;99882.88;5019494;28;20597;-80
2024/01/15 10:21:14;;;;;;;56.23;28.10;;;;;;;0.12;100.00;99837.06;5050129;28;20033;-79
2024/01/15 10:23:40;;;;;;;55.77;28.53;;;;;;;0.32;100.00;99867.25;5050009;28;20028;-80
2024/01/15 10:26:05;;;;;;;53.60;27.73;;;;;;;0.56;100.00;99873.84;5050029;28;20423;-82
2024/01/15 10:28:31;;;;;;;54.43;28.70;;;;;;;0.56;100.00;99864.59;5071913;28;20138;-80
2024/01/15 10:31:01;;;;;;;56.25;29.80;;;;;;;0.74;100.00;99852.22;5079859;28;20029;-82
2024/01/15 10:33:27;;;;;;;50.30;26.30;;;;;;;0.78;100.00;99843.13;5088487;28;20077;-79
2024/01/15 10:35:57;;;;;;;52.80;27.88;;;;;;;0.98;100.00;99858.81;5083011;28;20029;-81
2024/01/15 10:38:43;;;;;;;50.40;28.17;;;;;;;0.99;100.00;99850.41;5073240;28;20035;-83
2024/01/15 10:41:09;;;;;;;49.60;27.88;;;;;;;0.96;100.00;99844.34;5053256;28;20051;-80
2024/01/15 10:43:38;;;;;;;52.10;28.83;;;;;;;0.99;100.00;99828.41;5069856;28;20048;-81
2024/01/15 10:46:04;;;;;;;48.47;26.60;;;;;;;1.12;100.00;99840.25;5050943;28;20049;-85
2024/01/15 10:48:30;;;;;;;56.58;29.48;;;;;;;1.24;100.00;99843.56;5053659;28;20032;-81
2024/01/15 10:50:57;;;;;;;51.88;28.67;;;;;;;1.32;100.00;99846.63;5069743;28;20112;-80
2024/01/15 10:53:25;;;;;;;56.10;29.17;;;;;;;1.33;100.00;99839.88;5069394;28;20111;-81
2024/01/15 10:55:53;;;;;;;61.70;30.85;;;;;;;1.46;100.00;99834.78;5069719;28;20041;-80
2024/01/15 10:58:20;;;;;;;56.28;28.67;;;;;;;1.59;100.00;99831.31;5048642;28;20040;-87